createdAt,value
2022-09-09T00:02:24.536Z,100112.03
2022-09-09T00:04:58.020Z,100124.84
2022-09-09T00:07:26.191Z,100109.09
2022-09-09T00:09:52.350Z,100109.59
2022-09-09T00:12:30.773Z,100107.47
2022-09-09T00:15:07.772Z,100100.84
2022-09-09T00:17:33.942Z,100099.28
2022-09-09T00:20:13.458Z,100101.91
2022-09-09T00:22:40.386Z,100111.06
2022-09-09T00:25:11.622Z,100112.13
2022-09-09T00:27:37.815Z,100109.22
2022-09-09T00:30:12.887Z,100098.72
2022-09-09T00:32:39.090Z,100108.66
2022-09-09T00:35:14.827Z,100110.25
2022-09-09T00:37:41.028Z,100115.72
2022-09-09T00:40:14.320Z,100121.16
2022-09-09T00:42:43.787Z,100125.44
2022-09-09T00:45:15.805Z,100120.19
2022-09-09T00:47:51.466Z,100123.81
2022-09-09T00:50:32.952Z,100126.94
2022-09-09T00:52:59.106Z,100119.03
2022-09-09T00:55:25.326Z,100131.41
2022-09-09T00:57:52.137Z,100133.44
2022-09-09T01:00:24.929Z,100133.69
2022-09-09T01:02:54.306Z,100141.34
2022-09-09T01:05:40.634Z,100135.38
2022-09-09T01:08:10.173Z,100144.56
2022-09-09T01:10:48.557Z,100143.97
2022-09-09T01:13:16.361Z,100139.84
2022-09-09T01:15:42.557Z,100145.34
2022-09-09T01:18:09.582Z,100159.81
2022-09-09T01:20:47.598Z,100161.16
2022-09-09T01:23:25.958Z,100163.44
2022-09-09T01:26:10.970Z,100152.38
2022-09-09T01:28:37.160Z,100154.47
2022-09-09T01:31:04.389Z,100161.84
2022-09-09T01:33:30.626Z,100161.25
2022-09-09T01:35:58.453Z,100157.84
2022-09-09T01:38:24.774Z,100158.44
2022-09-09T01:40:51.028Z,100167.63
2022-09-09T01:43:17.232Z,100164.50
2022-09-09T01:45:43.476Z,100176.09
2022-09-09T01:48:09.714Z,100175.41
2022-09-09T01:50:35.928Z,100175.09
2022-09-09T01:53:02.126Z,100175.59
2022-09-09T01:55:37.904Z,100187.41
2022-09-09T01:58:22.878Z,100184.47
2022-09-09T02:00:52.326Z,100179.19
2022-09-09T02:03:25.937Z,100189.97
2022-09-09T02:06:10.975Z,100179.72
2022-09-09T02:08:44.243Z,100174.41
2022-09-09T02:11:16.449Z,100168.94
2022-09-09T02:13:43.773Z,100175.78
2022-09-09T02:16:14.347Z,100174.53
2022-09-09T02:18:50.958Z,100178.41
2022-09-09T02:21:17.384Z,100180.28
2022-09-09T02:23:43.709Z,100180.50
2022-09-09T02:26:10.217Z,100175.19
2022-09-09T02:28:36.546Z,100169.66
2022-09-09T02:31:02.852Z,100173.91
2022-09-09T02:33:30.115Z,100166.78
2022-09-09T02:35:56.327Z,100155.00
2022-09-09T02:38:22.529Z,100164.50
2022-09-09T02:40:48.754Z,100165.06
2022-09-09T02:43:15.437Z,100172.19
2022-09-09T02:45:58.731Z,100179.28
2022-09-09T02:48:27.311Z,100177.63
2022-09-09T02:50:56.545Z,100176.28
2022-09-09T02:53:29.673Z,100181.03
2022-09-09T02:55:57.424Z,100179.66
2022-09-09T02:58:23.620Z,100187.81
2022-09-09T03:00:50.262Z,100189.66
2022-09-09T03:03:16.870Z,100192.59
2022-09-09T03:05:44.192Z,100194.50
2022-09-09T03:08:10.425Z,100196.34
2022-09-09T03:10:36.622Z,100199.53
2022-09-09T03:13:02.812Z,100199.84
2022-09-09T03:15:29.008Z,100211.41
2022-09-09T03:17:55.330Z,100215.09
2022-09-09T03:20:21.519Z,100223.00
2022-09-09T03:22:47.728Z,100214.31
2022-09-09T03:25:13.928Z,100212.47
2022-09-09T03:27:40.134Z,100210.34
2022-09-09T03:30:06.525Z,100212.47
2022-09-09T03:32:32.720Z,100219.56
2022-09-09T03:34:58.921Z,100220.34
2022-09-09T03:37:25.122Z,100221.16
2022-09-09T03:39:51.377Z,100224.56
2022-09-09T03:42:17.622Z,100217.72
2022-09-09T03:44:43.817Z,100219.22
2022-09-09T03:47:10.026Z,100211.41
2022-09-09T03:49:36.211Z,100206.22
2022-09-09T03:52:02.504Z,100210.16
2022-09-09T03:54:28.701Z,100199.16
2022-09-09T03:56:54.895Z,100194.19
2022-09-09T03:59:21.093Z,100203.63
2022-09-09T04:01:47.330Z,100189.72
2022-09-09T04:04:13.797Z,100193.34
2022-09-09T04:06:40.007Z,100183.88
2022-09-09T04:09:06.206Z,100176.00
2022-09-09T04:11:32.408Z,100176.00
2022-09-09T04:13:58.622Z,100171.53
2022-09-09T04:16:24.884Z,100167.91
2022-09-09T04:18:51.085Z,100166.06
2022-09-09T04:21:17.293Z,100167.59
2022-09-09T04:23:43.489Z,100172.09
2022-09-09T04:26:09.742Z,100166.81
2022-09-09T04:28:36.219Z,100157.41
2022-09-09T04:31:09.407Z,100156.13
2022-09-09T04:33:39.953Z,100158.75
2022-09-09T04:36:06.673Z,100161.94
2022-09-09T04:38:32.918Z,100161.16
2022-09-09T04:40:59.136Z,100153.50
2022-09-09T04:43:25.352Z,100152.47
2022-09-09T04:45:51.676Z,100149.63
2022-09-09T04:48:18.549Z,100152.75
2022-09-09T04:50:44.743Z,100156.94
2022-09-09T04:53:10.949Z,100157.22
2022-09-09T04:55:37.173Z,100156.94
2022-09-09T04:58:06.757Z,100152.97
2022-09-09T05:00:33.519Z,100148.22
2022-09-09T05:03:02.694Z,100149.59
2022-09-09T05:05:28.880Z,100151.13
2022-09-09T05:07:55.077Z,100148.50
2022-09-09T05:10:21.270Z,100143.75
2022-09-09T05:12:53.859Z,100137.22
2022-09-09T05:15:20.044Z,100134.59
2022-09-09T05:17:46.236Z,100133.06
2022-09-09T05:20:17.200Z,100128.28
2022-09-09T05:22:43.722Z,100120.31
2022-09-09T05:25:09.912Z,100111.84
2022-09-09T05:27:36.117Z,100121.31
2022-09-09T05:30:02.304Z,100127.63
2022-09-09T05:32:30.186Z,100131.91
2022-09-09T05:34:56.376Z,100141.56
2022-09-09T05:37:22.577Z,100131.81
2022-09-09T05:39:48.816Z,100134.44
2022-09-09T05:42:15.061Z,100119.47
2022-09-09T05:44:41.258Z,100120.47
2022-09-09T05:47:07.498Z,100119.69
2022-09-09T05:49:33.721Z,100114.94
2022-09-09T05:51:59.930Z,100120.97
2022-09-09T05:54:26.132Z,100124.59
2022-09-09T05:56:52.342Z,100121.63
2022-09-09T05:59:18.537Z,100124.78
2022-09-09T06:01:44.806Z,100126.34
2022-09-09T06:04:11.057Z,100129.50
2022-09-09T06:06:37.682Z,100127.41
2022-09-09T06:09:04.556Z,100125.84
2022-09-09T06:11:31.200Z,100132.66
2022-09-09T06:13:57.464Z,100131.06
2022-09-09T06:16:24.331Z,100129.97
2022-09-09T06:18:50.731Z,100134.19
2022-09-09T06:21:23.748Z,100137.03
2022-09-09T06:23:49.989Z,100127.84
2022-09-09T06:26:17.051Z,100136.25
2022-09-09T06:28:43.245Z,100139.44
2022-09-09T06:31:10.175Z,100135.25
2022-09-09T06:33:42.546Z,100137.59
2022-09-09T06:36:11.349Z,100135.16
2022-09-09T06:38:37.701Z,100140.41
2022-09-09T06:41:03.973Z,100132.84
2022-09-09T06:43:30.170Z,100135.25
2022-09-09T06:46:04.108Z,100140.03
2022-09-09T06:48:30.458Z,100137.91
2022-09-09T06:51:02.915Z,100136.53
2022-09-09T06:53:30.818Z,100141.91
2022-09-09T06:55:57.162Z,100138.44
2022-09-09T06:58:23.364Z,100139.09
2022-09-09T07:00:49.577Z,100139.78
2022-09-09T07:03:15.838Z,100144.88
2022-09-09T07:05:42.024Z,100141.53
2022-09-09T07:08:08.219Z,100148.50
2022-09-09T07:10:34.423Z,100154.66
2022-09-09T07:13:00.641Z,100163.22
2022-09-09T07:15:26.858Z,100169.56
2022-09-09T07:17:53.060Z,100175.38
2022-09-09T07:20:19.249Z,100182.69
2022-09-09T07:22:45.445Z,100182.09
2022-09-09T07:25:11.641Z,100178.81
2022-09-09T07:27:37.853Z,100184.53
2022-09-09T07:30:04.201Z,100186.06
2022-09-09T07:32:30.396Z,100187.53
2022-09-09T07:34:56.624Z,100194.63
2022-09-09T07:37:22.831Z,100202.97
2022-09-09T07:39:49.106Z,100215.09
2022-09-09T07:42:15.371Z,100227.25
2022-09-09T07:44:41.569Z,100235.13
2022-09-09T07:47:07.770Z,100246.66
2022-09-09T07:49:33.954Z,100251.69
2022-09-09T07:52:00.234Z,100269.34
2022-09-09T07:54:26.497Z,100283.00
2022-09-09T07:56:52.708Z,100283.38
2022-09-09T07:59:18.982Z,100289.72
2022-09-09T08:01:45.927Z,100295.66
2022-09-09T08:04:12.928Z,100301.72
2022-09-09T08:06:39.938Z,100293.31
2022-09-09T08:09:06.361Z,100293.16
2022-09-09T08:11:38.055Z,100284.91
2022-09-09T08:14:05.158Z,100286.91
2022-09-09T08:16:32.199Z,100311.34
2022-09-09T08:18:58.470Z,100268.09
2022-09-09T08:21:25.911Z,100245.03
2022-09-09T08:23:55.881Z,100270.13
2022-09-09T08:26:28.114Z,100246.78
2022-09-09T08:28:54.773Z,100234.13
2022-09-09T08:31:21.897Z,100281.31
2022-09-09T08:33:48.203Z,100329.97
2022-09-09T08:36:16.468Z,100358.56
2022-09-09T08:38:42.990Z,100385.81
2022-09-09T08:41:09.168Z,100436.75
2022-09-09T08:43:35.398Z,100458.38
2022-09-09T08:46:10.427Z,100487.50
2022-09-09T08:48:41.988Z,100503.06
2022-09-09T08:51:08.176Z,100511.25
2022-09-09T08:53:38.142Z,100516.47
2022-09-09T08:56:07.877Z,100514.22
2022-09-09T08:58:34.485Z,100523.50
2022-09-09T09:01:03.234Z,100475.47
2022-09-09T09:03:49.682Z,100462.59
2022-09-09T09:06:21.876Z,100463.97
2022-09-09T09:08:49.817Z,100490.81
2022-09-09T09:11:16.001Z,100483.50
2022-09-09T09:14:02.439Z,100468.97
2022-09-09T09:16:31.593Z,100492.72
2022-09-09T09:18:57.932Z,100525.53
2022-09-09T09:21:29.932Z,100530.47
2022-09-09T09:23:59.424Z,100486.63
2022-09-09T09:26:26.660Z,100456.16
2022-09-09T09:28:53.893Z,100460.66
2022-09-09T09:31:20.118Z,100484.59
2022-09-09T09:33:53.201Z,100509.50
2022-09-09T09:36:19.692Z,100548.47
2022-09-09T09:41:42.521Z,100573.81
2022-09-09T09:44:24.029Z,100588.78
2022-09-09T09:46:50.273Z,100584.91
2022-09-09T09:49:16.482Z,100550.81
2022-09-09T09:51:42.875Z,100550.22
2022-09-09T09:54:15.114Z,100462.97
2022-09-09T09:56:41.335Z,100461.41
2022-09-09T09:59:29.619Z,100407.50
2022-09-09T10:02:14.618Z,100466.25
2022-09-09T10:04:40.856Z,100382.25
2022-09-09T10:07:14.186Z,100241.50
2022-09-09T10:09:40.954Z,100223.88
2022-09-09T10:12:10.201Z,100269.94
2022-09-09T10:14:42.579Z,100389.13
2022-09-09T10:17:17.955Z,100318.22
2022-09-09T10:19:52.063Z,100257.03
2022-09-09T10:22:24.766Z,100280.56
2022-09-09T10:25:03.200Z,100328.56
2022-09-09T10:27:29.356Z,100408.31
2022-09-09T10:29:58.522Z,100366.88
2022-09-09T10:32:37.906Z,100255.19
2022-09-09T10:35:10.056Z,100182.72
2022-09-09T10:37:54.727Z,100314.19
2022-09-09T10:40:32.992Z,100321.66
2022-09-09T10:43:05.307Z,100342.66
2022-09-09T10:45:34.471Z,100427.41
2022-09-09T10:48:18.444Z,100476.09
2022-09-09T10:51:07.173Z,100522.94
2022-09-09T10:53:37.628Z,100577.81
2022-09-09T10:56:08.088Z,100497.16
2022-09-09T10:58:36.928Z,100457.03
2022-09-09T11:01:04.975Z,100506.94
2022-09-09T11:03:31.262Z,100480.00
2022-09-09T11:06:01.417Z,100375.25
2022-09-09T11:08:27.993Z,100445.06
2022-09-09T11:11:03.955Z,100463.69
2022-09-09T11:13:47.854Z,100555.53
2022-09-09T11:16:20.362Z,100589.31
2022-09-09T11:18:46.623Z,100660.66
2022-09-09T11:21:24.270Z,100651.63
2022-09-09T11:23:51.854Z,100616.97
2022-09-09T11:26:26.421Z,100647.69
2022-09-09T11:28:55.770Z,100685.03
2022-09-09T11:31:21.933Z,100641.31
2022-09-09T11:33:51.441Z,100605.50
2022-09-09T11:36:25.094Z,100538.88
2022-09-09T11:38:51.679Z,100354.84
2022-09-09T11:41:21.554Z,100247.53
2022-09-09T11:43:48.781Z,100263.09
2022-09-09T11:46:15.773Z,100313.41
2022-09-09T11:48:42.666Z,100348.75
2022-09-09T11:51:14.644Z,100551.91
2022-09-09T11:53:50.057Z,100636.94
2022-09-09T11:56:24.509Z,100674.09
2022-09-09T11:58:58.023Z,100558.44
2022-09-09T12:01:30.279Z,100364.81
2022-09-09T12:04:06.695Z,100426.22
2022-09-09T12:06:33.197Z,100487.78
2022-09-09T12:09:05.530Z,100451.88
2022-09-09T12:11:31.740Z,100429.47
2022-09-09T12:14:00.305Z,100463.47
2022-09-09T12:16:30.384Z,100571.09
2022-09-09T12:19:03.511Z,100648.97
2022-09-09T12:21:29.732Z,100668.91
2022-09-09T12:23:56.318Z,100562.03
2022-09-09T12:26:34.795Z,100500.53
2022-09-09T12:29:15.979Z,100522.22
2022-09-09T12:32:00.526Z,100522.53
2022-09-09T12:34:34.838Z,100499.22
2022-09-09T12:37:09.898Z,100215.78
2022-09-09T12:39:40.480Z,100243.13
2022-09-09T12:42:15.171Z,100086.25
2022-09-09T12:44:41.367Z,100223.66
2022-09-09T12:47:07.572Z,100121.78
2022-09-09T12:49:35.139Z,100275.16
2022-09-09T12:52:20.351Z,100270.50
2022-09-09T12:54:46.675Z,100415.97
2022-09-09T12:57:12.973Z,100476.84
2022-09-09T12:59:39.904Z,100540.25
2022-09-09T13:02:15.330Z,100544.44
2022-09-09T13:04:41.566Z,100494.28
2022-09-09T13:07:08.127Z,100415.97
2022-09-09T13:09:34.328Z,100507.28
2022-09-09T13:12:00.541Z,100564.56
2022-09-09T13:14:29.407Z,100592.56
2022-09-09T13:16:56.618Z,100610.09
2022-09-09T13:19:22.828Z,100433.97
2022-09-09T13:21:49.027Z,100541.72
2022-09-09T13:24:34.100Z,100546.44
2022-09-09T13:27:04.276Z,100406.59
2022-09-09T13:29:31.068Z,100341.00
2022-09-09T13:32:06.787Z,100178.66
2022-09-09T13:34:33.705Z,100241.88
2022-09-09T13:37:00.590Z,100353.25
2022-09-09T13:39:26.801Z,100426.47
2022-09-09T13:41:53.007Z,100465.56
2022-09-09T13:44:26.410Z,100396.75
2022-09-09T13:47:11.531Z,100448.50
2022-09-09T13:49:37.731Z,100539.44
2022-09-09T13:52:10.301Z,100580.09
2022-09-09T13:54:38.218Z,100550.88
2022-09-09T13:57:04.453Z,100639.25
2022-09-09T13:59:53.965Z,100349.81
2022-09-09T14:02:16.924Z,100301.66
2022-09-09T14:04:43.351Z,100246.88
2022-09-09T14:07:10.364Z,100090.75
2022-09-09T14:09:36.573Z,100254.06
2022-09-09T14:12:02.782Z,100357.50
2022-09-09T14:14:28.986Z,100547.41
2022-09-09T14:16:55.183Z,100576.69
2022-09-09T14:19:21.398Z,100643.16
2022-09-09T14:21:47.590Z,100659.56
2022-09-09T14:24:13.785Z,100749.22
2022-09-09T14:26:39.991Z,100789.63
2022-09-09T14:29:06.196Z,100785.34
2022-09-09T14:31:32.405Z,100787.50
2022-09-09T14:33:58.601Z,100749.06
2022-09-09T14:36:24.807Z,100744.72
2022-09-09T14:38:51.070Z,100722.75
2022-09-09T14:41:18.107Z,100700.59
2022-09-09T14:43:44.543Z,100677.50
2022-09-09T14:46:14.466Z,100667.38
2022-09-09T14:48:40.762Z,100662.19
2022-09-09T14:51:10.933Z,100641.91
2022-09-09T14:53:37.323Z,100617.09
2022-09-09T14:56:04.429Z,100609.94
2022-09-09T14:58:33.449Z,100598.81
2022-09-09T15:01:03.781Z,100596.94
2022-09-09T15:03:30.086Z,100554.34
2022-09-09T15:05:56.308Z,100532.84
2022-09-09T15:08:22.587Z,100539.34
2022-09-09T15:10:48.795Z,100555.09
2022-09-09T15:13:15.755Z,100561.72
2022-09-09T15:15:42.007Z,100579.34
2022-09-09T15:18:08.280Z,100586.78
2022-09-09T15:20:39.589Z,100580.50
2022-09-09T15:23:06.423Z,100569.22
2022-09-09T15:25:32.623Z,100553.72
2022-09-09T15:27:58.840Z,100532.06
2022-09-09T15:30:25.043Z,100521.13
2022-09-09T15:32:51.326Z,100509.78
2022-09-09T15:35:17.531Z,100495.81
2022-09-09T15:37:43.743Z,100486.50
2022-09-09T15:40:10.172Z,100487.47
2022-09-09T15:42:36.438Z,100471.88
2022-09-09T15:45:02.636Z,100473.09
2022-09-09T15:47:28.852Z,100468.22
2022-09-09T15:49:55.050Z,100460.66
2022-09-09T15:52:21.272Z,100450.22
2022-09-09T15:54:47.468Z,100447.13
2022-09-09T15:57:13.771Z,100440.53
2022-09-09T15:59:40.003Z,100436.53
2022-09-09T16:02:06.332Z,100410.66
2022-09-09T16:04:32.693Z,100406.66
2022-09-09T16:06:59.825Z,100400.34
2022-09-09T16:09:26.115Z,100391.69
2022-09-09T16:11:52.317Z,100379.19
2022-09-09T16:14:18.527Z,100366.41
2022-09-09T16:16:44.720Z,100358.78
2022-09-09T16:19:11.765Z,100355.31
2022-09-09T16:21:38.894Z,100347.38
2022-09-09T16:24:05.302Z,100351.47
2022-09-09T16:26:32.173Z,100330.25
2022-09-09T16:28:58.486Z,100327.31
2022-09-09T16:31:24.836Z,100366.31
2022-09-09T16:33:51.158Z,100374.81
2022-09-09T16:36:18.068Z,100424.28
2022-09-09T16:38:44.354Z,100453.38
2022-09-09T16:41:10.777Z,100469.91
2022-09-09T16:43:37.270Z,100473.75
2022-09-09T16:46:04.070Z,100469.22
2022-09-09T16:48:33.395Z,100472.25
2022-09-09T16:51:03.645Z,100472.41
2022-09-09T16:53:29.855Z,100482.16
2022-09-09T16:55:58.429Z,100482.00
2022-09-09T16:58:24.686Z,100469.91
2022-09-09T17:00:50.899Z,100468.56
2022-09-09T17:03:17.116Z,100459.69
2022-09-09T17:05:43.302Z,100461.06
2022-09-09T17:08:09.502Z,100442.94
2022-09-09T17:10:40.643Z,100451.38
2022-09-09T17:13:06.882Z,100459.00
2022-09-09T17:15:33.148Z,100454.97
2022-09-09T17:17:59.376Z,100471.19
2022-09-09T17:20:25.600Z,100463.28
2022-09-09T17:22:51.820Z,100457.16
2022-09-09T17:25:18.045Z,100452.63
2022-09-09T17:27:44.266Z,100444.84
2022-09-09T17:30:10.706Z,100434.81
2022-09-09T17:32:36.923Z,100428.78
2022-09-09T17:35:03.240Z,100426.44
2022-09-09T17:37:29.453Z,100407.88
2022-09-09T17:39:55.707Z,100392.50
2022-09-09T17:42:21.984Z,100394.72
2022-09-09T17:44:48.185Z,100385.75
2022-09-09T17:47:14.414Z,100388.09
2022-09-09T17:49:40.618Z,100389.84
2022-09-09T17:52:06.834Z,100386.63
2022-09-09T17:54:33.030Z,100392.50
2022-09-09T17:56:59.244Z,100399.31
2022-09-09T17:59:25.437Z,100399.78
2022-09-09T18:01:51.723Z,100416.31
2022-09-09T18:04:17.990Z,100455.38
2022-09-09T18:06:45.115Z,100479.44
2022-09-09T18:09:12.269Z,100482.31
2022-09-09T18:11:39.503Z,100485.91
2022-09-09T18:14:05.718Z,100501.31
2022-09-09T18:16:32.313Z,100481.59
2022-09-09T18:18:58.542Z,100490.06
2022-09-09T18:21:24.778Z,100476.81
2022-09-09T18:23:51.044Z,100469.31
2022-09-09T18:26:24.068Z,100480.50
2022-09-09T18:28:50.961Z,100477.53
2022-09-09T18:31:17.558Z,100470.34
2022-09-09T18:33:44.274Z,100454.00
2022-09-09T18:36:14.411Z,100442.69
2022-09-09T18:38:40.797Z,100444.84
2022-09-09T18:41:13.226Z,100423.56
2022-09-09T18:43:39.429Z,100453.31
2022-09-09T18:46:05.657Z,100474.81
2022-09-09T18:48:35.027Z,100479.53
2022-09-09T18:51:02.364Z,100472.41
2022-09-09T18:53:28.570Z,100469.22
2022-09-09T18:55:58.694Z,100487.25
2022-09-09T18:58:24.911Z,100501.22
2022-09-09T19:00:51.169Z,100504.03
2022-09-09T19:03:17.398Z,100514.97
2022-09-09T19:05:43.603Z,100507.50
2022-09-09T19:08:09.847Z,100520.38
2022-09-09T19:10:36.562Z,100522.22
2022-09-09T19:13:02.855Z,100522.75
2022-09-09T19:15:29.130Z,100524.03
2022-09-09T19:17:55.374Z,100517.19
2022-09-09T19:20:21.597Z,100514.56
2022-09-09T19:22:47.804Z,100510.34
2022-09-09T19:25:13.998Z,100506.31
2022-09-09T19:27:40.224Z,100510.47
2022-09-09T19:30:06.730Z,100521.00
2022-09-09T19:35:19.100Z,100497.22
2022-09-09T19:37:45.297Z,100511.13
2022-09-09T19:40:11.586Z,100537.91
2022-09-09T19:42:37.854Z,100554.69
2022-09-09T19:45:04.134Z,100535.06
2022-09-09T19:47:30.342Z,100540.28
2022-09-09T19:49:56.538Z,100562.31
2022-09-09T19:52:22.745Z,100576.97
2022-09-09T19:54:48.988Z,100570.19
2022-09-09T19:57:15.193Z,100572.22
2022-09-09T19:59:41.381Z,100570.06
2022-09-09T20:02:08.598Z,100555.53
2022-09-09T20:04:34.844Z,100552.38
2022-09-09T20:07:01.044Z,100551.91
2022-09-09T20:09:27.254Z,100534.72
2022-09-09T20:11:53.470Z,100543.28
2022-09-09T20:14:19.670Z,100565.88
2022-09-09T20:16:45.892Z,100577.63
2022-09-09T20:19:12.248Z,100572.84
2022-09-09T20:21:40.389Z,100574.41
2022-09-09T20:24:09.986Z,100555.34
2022-09-09T20:26:36.188Z,100565.34
2022-09-09T20:29:02.433Z,100569.78
2022-09-09T20:31:29.232Z,100577.88
2022-09-09T20:33:55.975Z,100564.97
2022-09-09T20:36:29.902Z,100558.19
2022-09-09T20:38:56.746Z,100556.75
2022-09-09T20:41:22.994Z,100567.81
2022-09-09T20:43:49.492Z,100569.25
2022-09-09T20:46:16.449Z,100587.56
2022-09-09T20:48:42.673Z,100564.03
2022-09-09T20:51:08.930Z,100572.63
2022-09-09T20:53:35.155Z,100563.78
2022-09-09T20:56:01.804Z,100566.41
2022-09-09T20:58:32.879Z,100562.28
2022-09-09T21:00:59.659Z,100561.19
2022-09-09T21:03:26.914Z,100556.25
2022-09-09T21:05:53.115Z,100559.31
2022-09-09T21:08:19.337Z,100555.28
2022-09-09T21:10:45.542Z,100548.16
2022-09-09T21:13:11.738Z,100531.06
2022-09-09T21:15:37.943Z,100510.19
2022-09-09T21:18:04.157Z,100505.06
2022-09-09T21:20:30.367Z,100526.53
2022-09-09T21:22:56.570Z,100520.44
2022-09-09T21:25:22.785Z,100517.22
2022-09-09T21:27:48.993Z,100514.81
2022-09-09T21:30:15.238Z,100502.19
2022-09-09T21:32:41.436Z,100495.91
2022-09-09T21:35:07.776Z,100491.44
2022-09-09T21:37:33.984Z,100499.31
2022-09-09T21:40:00.242Z,100481.91
2022-09-09T21:42:26.531Z,100507.50
2022-09-09T21:44:52.734Z,100517.78
2022-09-09T21:47:18.939Z,100539.38
2022-09-09T21:49:45.139Z,100555.56
2022-09-09T21:52:11.342Z,100562.16
2022-09-09T21:54:37.542Z,100556.34
2022-09-09T21:57:03.741Z,100555.22
2022-09-09T21:59:29.928Z,100556.00
2022-09-09T22:01:56.244Z,100545.00
2022-09-09T22:04:22.528Z,100553.38
2022-09-09T22:06:48.722Z,100556.47
2022-09-09T22:09:14.930Z,100542.81
2022-09-09T22:11:41.118Z,100537.28
2022-09-09T22:14:07.330Z,100537.84
2022-09-09T22:16:33.527Z,100529.16
2022-09-09T22:18:59.928Z,100522.84
2022-09-09T22:21:26.515Z,100514.41
2022-09-09T22:23:53.294Z,100513.38
2022-09-09T22:26:19.494Z,100525.69
2022-09-09T22:28:45.706Z,100521.50
2022-09-09T22:31:11.915Z,100532.03
2022-09-09T22:33:38.129Z,100523.22
2022-09-09T22:36:04.391Z,100538.00
2022-09-09T22:38:30.637Z,100553.97
2022-09-09T22:40:56.851Z,100575.25
2022-09-09T22:43:23.063Z,100570.50
2022-09-09T22:45:49.346Z,100564.78
2022-09-09T22:48:15.554Z,100574.56
2022-09-09T22:50:42.518Z,100584.84
2022-09-09T22:53:09.373Z,100597.22
2022-09-09T22:55:35.556Z,100593.00
2022-09-09T22:58:01.938Z,100588.59
2022-09-09T23:00:28.133Z,100589.41
2022-09-09T23:02:54.316Z,100598.28
2022-09-09T23:05:20.538Z,100596.41
2022-09-09T23:07:46.736Z,100591.16
2022-09-09T23:10:12.940Z,100578.50
2022-09-09T23:12:39.134Z,100565.06
2022-09-09T23:15:05.493Z,100548.72
2022-09-09T23:17:31.680Z,100536.22
2022-09-09T23:19:57.884Z,100529.69
2022-09-09T23:22:24.073Z,100520.78
2022-09-09T23:24:50.307Z,100540.50
2022-09-09T23:27:16.500Z,100545.97
2022-09-09T23:29:42.696Z,100537.59
2022-09-09T23:32:08.892Z,100534.38
2022-09-09T23:34:35.088Z,100524.19
2022-09-09T23:37:01.284Z,100506.66
2022-09-09T23:39:27.640Z,100520.56
2022-09-09T23:41:53.875Z,100523.72
2022-09-09T23:44:20.085Z,100523.72
2022-09-09T23:46:46.346Z,100523.72
2022-09-09T23:49:12.565Z,100527.13
2022-09-09T23:51:38.760Z,100521.31
2022-09-09T23:54:05.235Z,100518.16
2022-09-09T23:56:35.391Z,100501.13
2022-09-09T23:59:01.601Z,100500.81
